Time;durP1;ratioP1;P1;durP2;ratioP2;P2;SDS_P1;SDS_P2;PMS_P1;PMS_P2;Temp;Humidity;BMP_temperature;BMP_pressure;BME280_temperature;BME280_humidity;BME280_pressure;Samples;Min_cycle;Max_cycle;Signal;HPM_P1;HPM_P2
2021/12/18 00:00:19;;;;;;;8.47;4.97;;;;;;;;;;5014236;28;20214;-74
2021/12/18 00:02:45;;;;;;;9.40;5.10;;;;;;;;;;5024283;28;22191;-73
2021/12/18 00:05:10;;;;;;;9.07;6.33;;;;;;;;;;5013578;28;20193;-73
2021/12/18 00:07:35;;;;;;;10.23;6.50;;;;;;;;;;5011288;28;20781;-73
2021/12/18 00:10:02;;;;;;;10.07;6.13;;;;;;;;;;5009056;28;20832;-75
2021/12/18 00:12:27;;;;;;;10.70;6.73;;;;;;;;;;5010934;28;20196;-73
2021/12/18 00:14:52;;;;;;;11.63;6.00;;;;;;;;;;5008641;28;20190;-73
2021/12/18 00:17:18;;;;;;;11.43;6.80;;;;;;;;;;5010011;28;20197;-74
2021/12/18 00:19:43;;;;;;;10.57;6.53;;;;;;;;;;5028840;28;20198;-73
2021/12/18 00:22:08;;;;;;;9.97;6.10;;;;;;;;;;5006080;28;20201;-74
2021/12/18 00:24:34;;;;;;;11.37;6.73;;;;;;;;;;5012737;28;20510;-73
2021/12/18 00:26:59;;;;;;;10.97;5.83;;;;;;;;;;5009404;28;20199;-73
2021/12/18 00:29:24;;;;;;;8.37;5.10;;;;;;;;;;5007820;28;20306;-74
2021/12/18 00:31:51;;;;;;;9.60;5.47;;;;;;;;;;5008803;28;20189;-73
2021/12/18 00:34:16;;;;;;;10.63;6.30;;;;;;;;;;5009590;28;20659;-73
2021/12/18 00:36:41;;;;;;;9.97;6.10;;;;;;;;;;5009691;28;20186;-73
2021/12/18 00:39:06;;;;;;;10.27;6.50;;;;;;;;;;5008831;28;20210;-73
2021/12/18 00:44:03;;;;;;;10.73;6.40;;;;;;;;;;5007214;28;20423;-74
2021/12/18 00:46:29;;;;;;;13.80;6.50;;;;;;;;;;5009579;28;21481;-74
2021/12/18 00:48:55;;;;;;;11.97;7.53;;;;;;;;;;5024037;22;21358;-70
2021/12/18 00:51:20;;;;;;;12.83;7.30;;;;;;;;;;4999945;28;20568;-70
2021/12/18 00:53:45;;;;;;;12.50;6.73;;;;;;;;;;5000486;28;20270;-70
2021/12/18 00:56:11;;;;;;;13.87;8.43;;;;;;;;;;4998934;28;20186;-70
2021/12/18 00:58:36;;;;;;;11.10;7.00;;;;;;;;;;5012901;28;20579;-70
2021/12/18 01:01:06;;;;;;;12.93;7.60;;;;;;;;;;5012622;28;20250;-70
2021/12/18 01:03:32;;;;;;;11.77;7.17;;;;;;;;;;5008076;28;20287;-70
2021/12/18 01:05:57;;;;;;;12.57;7.13;;;;;;;;;;4990403;28;20317;-71
2021/12/18 01:08:22;;;;;;;13.00;6.33;;;;;;;;;;4997777;28;20197;-71
2021/12/18 01:11:10;;;;;;;12.43;6.90;;;;;;;;;;4996993;28;20210;-71
2021/12/18 01:13:40;;;;;;;12.90;7.40;;;;;;;;;;4997296;28;20657;-70
2021/12/18 01:16:14;;;;;;;13.80;7.10;;;;;;;;;;4994633;28;20188;-71
2021/12/18 01:24:09;;;;;;;8.50;4.70;;;;;;;;;;4995821;28;20277;-71
2021/12/18 01:26:34;;;;;;;9.17;5.43;;;;;;;;;;4997961;28;20194;-70
2021/12/18 01:28:59;;;;;;;7.67;4.77;;;;;;;;;;4996457;28;20203;-70
2021/12/18 01:31:24;;;;;;;7.00;4.43;;;;;;;;;;4998485;28;20233;-71
2021/12/18 01:33:50;;;;;;;9.20;5.57;;;;;;;;;;4998593;28;20183;-71
2021/12/18 01:36:15;;;;;;;9.00;5.23;;;;;;;;;;4997422;28;20261;-70
2021/12/18 01:38:40;;;;;;;7.87;5.17;;;;;;;;;;4995075;28;20209;-70
2021/12/18 01:41:05;;;;;;;9.03;6.03;;;;;;;;;;4996693;28;20237;-69
2021/12/18 01:54:10;;;;;;;10.00;5.67;;;;;;;;;;4997485;28;20243;-69
2021/12/18 01:56:35;;;;;;;9.37;5.27;;;;;;;;;;4994364;28;20854;-69
2021/12/18 01:59:00;;;;;;;8.80;5.33;;;;;;;;;;4994500;28;20783;-70
2021/12/18 02:01:27;;;;;;;8.03;5.73;;;;;;;;;;4999416;28;20261;-71
2021/12/18 02:03:52;;;;;;;9.83;5.73;;;;;;;;;;5000844;28;20657;-71
2021/12/18 02:06:17;;;;;;;8.83;6.03;;;;;;;;;;4998396;28;20173;-73
2021/12/18 02:08:44;;;;;;;8.60;5.30;;;;;;;;;;4995771;28;20723;-71
2021/12/18 02:21:40;;;;;;;12.43;5.97;;;;;;;;;;4997178;28;20670;-71
2021/12/18 02:24:05;;;;;;;10.27;5.60;;;;;;;;;;4996354;28;20179;-72
2021/12/18 02:26:30;;;;;;;11.93;6.33;;;;;;;;;;4997064;28;20345;-70
2021/12/18 02:28:58;;;;;;;9.63;5.90;;;;;;;;;;4995905;28;20929;-69
2021/12/18 02:31:23;;;;;;;10.63;6.57;;;;;;;;;;4998772;28;20259;-68
2021/12/18 02:33:49;;;;;;;9.87;5.67;;;;;;;;;;4996110;28;20195;-69
2021/12/18 02:36:22;;;;;;;10.27;6.03;;;;;;;;;;5008335;28;20182;-69
2021/12/18 02:41:29;;;;;;;9.23;5.00;;;;;;;;;;5007592;28;20186;-69
2021/12/18 02:43:57;;;;;;;10.47;5.87;;;;;;;;;;5011309;28;20261;-70
2021/12/18 02:46:22;;;;;;;8.13;4.67;;;;;;;;;;5015084;28;20179;-69
2021/12/18 02:48:48;;;;;;;9.77;5.60;;;;;;;;;;5021522;28;20291;-69
2021/12/18 02:51:14;;;;;;;8.87;5.23;;;;;;;;;;5017836;28;20294;-69
2021/12/18 02:53:44;;;;;;;9.30;5.80;;;;;;;;;;5016374;28;20195;-68
2021/12/18 02:56:11;;;;;;;11.07;5.30;;;;;;;;;;5017042;28;20544;-68
2021/12/18 02:58:36;;;;;;;9.83;6.20;;;;;;;;;;5015244;28;20209;-68
2021/12/18 03:01:02;;;;;;;9.73;5.73;;;;;;;;;;5015048;28;20251;-68
2021/12/18 03:03:32;;;;;;;11.67;6.07;;;;;;;;;;5015652;28;20183;-69
2021/12/18 03:06:10;;;;;;;9.93;5.00;;;;;;;;;;5017072;28;20191;-71
2021/12/18 03:09:00;;;;;;;7.87;4.40;;;;;;;;;;5004202;28;20824;-70
2021/12/18 03:25:12;;;;;;;9.77;5.00;;;;;;;;;;4999908;28;20225;-70
2021/12/18 03:27:38;;;;;;;10.13;5.67;;;;;;;;;;4999899;28;20187;-69
2021/12/18 03:30:03;;;;;;;8.10;4.47;;;;;;;;;;4999720;28;20763;-69
2021/12/18 03:32:29;;;;;;;12.93;6.60;;;;;;;;;;4998619;28;20623;-69
2021/12/18 03:34:54;;;;;;;10.00;5.20;;;;;;;;;;4998653;28;20191;-70
2021/12/18 03:37:20;;;;;;;6.83;4.50;;;;;;;;;;5001845;28;20198;-71
2021/12/18 03:39:45;;;;;;;9.07;4.63;;;;;;;;;;5000577;28;20213;-70
2021/12/18 03:42:11;;;;;;;10.73;5.90;;;;;;;;;;4997948;28;20611;-69
2021/12/18 03:44:36;;;;;;;8.73;5.40;;;;;;;;;;4999232;28;20972;-73
2021/12/18 03:47:02;;;;;;;8.73;4.73;;;;;;;;;;4999221;28;20281;-70
2021/12/18 03:49:28;;;;;;;9.60;5.53;;;;;;;;;;5000775;28;20224;-70
2021/12/18 03:51:53;;;;;;;10.00;5.50;;;;;;;;;;5000689;28;20578;-70
2021/12/18 03:54:18;;;;;;;11.80;6.53;;;;;;;;;;4999145;28;20193;-69
2021/12/18 03:56:43;;;;;;;11.77;6.53;;;;;;;;;;4998474;28;20235;-70
2021/12/18 03:59:09;;;;;;;10.93;6.30;;;;;;;;;;4996302;28;20863;-70
2021/12/18 04:01:34;;;;;;;8.83;5.50;;;;;;;;;;4996821;28;20284;-68
2021/12/18 04:03:59;;;;;;;8.90;5.20;;;;;;;;;;5001194;28;20179;-70
2021/12/18 04:06:24;;;;;;;10.87;5.07;;;;;;;;;;5001043;28;20182;-70
2021/12/18 04:08:50;;;;;;;12.20;5.90;;;;;;;;;;4998563;28;20214;-70
2021/12/18 04:11:15;;;;;;;11.63;6.30;;;;;;;;;;4999122;28;20186;-69
2021/12/18 04:13:44;;;;;;;8.80;4.93;;;;;;;;;;4997961;28;20488;-70
2021/12/18 04:16:09;;;;;;;8.73;4.70;;;;;;;;;;4999945;28;20174;-70
2021/12/18 04:18:35;;;;;;;9.30;4.80;;;;;;;;;;4998277;28;20199;-69
2021/12/18 04:21:00;;;;;;;14.50;5.10;;;;;;;;;;4997467;28;20183;-68
2021/12/18 04:23:25;;;;;;;11.97;5.60;;;;;;;;;;4996184;28;20182;-71
2021/12/18 04:25:50;;;;;;;8.30;4.37;;;;;;;;;;4996391;28;20191;-69
2021/12/18 04:28:15;;;;;;;9.43;5.10;;;;;;;;;;4996731;28;20191;-69
2021/12/18 04:30:41;;;;;;;10.40;5.13;;;;;;;;;;4995610;28;20202;-70
2021/12/18 04:33:06;;;;;;;13.30;5.83;;;;;;;;;;4995733;28;20195;-71
2021/12/18 04:35:31;;;;;;;9.90;5.47;;;;;;;;;;4988491;28;21544;-71
2021/12/18 04:37:56;;;;;;;9.83;5.63;;;;;;;;;;4997046;28;20214;-70
2021/12/18 04:40:25;;;;;;;11.43;6.00;;;;;;;;;;4996676;28;20202;-69
2021/12/18 04:42:51;;;;;;;12.10;5.87;;;;;;;;;;4994238;28;20281;-69
2021/12/18 04:45:17;;;;;;;10.03;5.33;;;;;;;;;;4995759;28;20220;-70
2021/12/18 04:47:42;;;;;;;13.07;6.93;;;;;;;;;;4996427;28;20280;-69
2021/12/18 04:50:07;;;;;;;12.67;6.50;;;;;;;;;;5012550;28;20230;-70
2021/12/18 04:52:32;;;;;;;16.93;6.80;;;;;;;;;;4997312;28;20187;-70
2021/12/18 04:54:57;;;;;;;12.50;5.70;;;;;;;;;;4996464;28;20191;-70
2021/12/18 04:57:23;;;;;;;11.13;5.90;;;;;;;;;;4997668;28;20198;-70
2021/12/18 04:59:48;;;;;;;12.67;5.80;;;;;;;;;;4994343;28;20210;-70
2021/12/18 05:02:18;;;;;;;13.23;5.93;;;;;;;;;;4996205;28;20266;-70
2021/12/18 05:04:43;;;;;;;10.80;6.00;;;;;;;;;;4996680;28;20182;-70
2021/12/18 05:07:10;;;;;;;10.30;4.90;;;;;;;;;;4996047;28;20183;-70
2021/12/18 05:09:36;;;;;;;8.80;5.60;;;;;;;;;;4999741;28;20605;-71
2021/12/18 05:12:01;;;;;;;10.80;4.63;;;;;;;;;;4997694;28;20240;-68
2021/12/18 05:14:26;;;;;;;7.83;4.47;;;;;;;;;;4998130;28;20496;-69
2021/12/18 05:16:51;;;;;;;9.60;5.13;;;;;;;;;;4998729;28;20306;-68
2021/12/18 05:19:16;;;;;;;10.13;4.70;;;;;;;;;;4999218;28;20213;-68
2021/12/18 05:21:41;;;;;;;8.00;4.40;;;;;;;;;;4997472;28;20183;-70
2021/12/18 05:24:07;;;;;;;6.60;3.30;;;;;;;;;;4995173;28;20186;-70
2021/12/18 05:26:32;;;;;;;5.53;2.63;;;;;;;;;;4997839;28;20636;-69
2021/12/18 05:28:57;;;;;;;4.67;2.20;;;;;;;;;;4997146;28;20999;-70
2021/12/18 05:31:22;;;;;;;8.30;4.47;;;;;;;;;;4996977;28;20187;-69
2021/12/18 05:33:49;;;;;;;5.37;3.13;;;;;;;;;;4996225;28;20313;-69
2021/12/18 05:38:59;;;;;;;5.20;2.73;;;;;;;;;;4998665;28;20291;-69
2021/12/18 05:41:25;;;;;;;6.90;3.37;;;;;;;;;;4997539;28;20195;-69
2021/12/18 05:43:50;;;;;;;5.67;3.17;;;;;;;;;;4995442;28;20175;-70
2021/12/18 05:46:15;;;;;;;6.90;3.30;;;;;;;;;;4993881;28;20182;-69
2021/12/18 05:48:40;;;;;;;5.70;3.07;;;;;;;;;;5014821;28;20270;-72
2021/12/18 05:51:06;;;;;;;5.13;2.57;;;;;;;;;;4999094;28;20266;-72
2021/12/18 05:53:31;;;;;;;7.73;3.97;;;;;;;;;;4996251;28;20608;-70
2021/12/18 05:55:57;;;;;;;6.43;3.73;;;;;;;;;;4996422;28;20182;-69
2021/12/18 05:58:22;;;;;;;10.90;4.47;;;;;;;;;;5007610;28;20683;-70
2021/12/18 06:00:47;;;;;;;6.13;3.40;;;;;;;;;;5006417;28;20218;-70
2021/12/18 06:03:12;;;;;;;6.07;3.63;;;;;;;;;;4992558;28;20558;-69
2021/12/18 06:05:37;;;;;;;11.80;3.07;;;;;;;;;;4993978;28;20664;-70
2021/12/18 06:08:05;;;;;;;7.60;3.47;;;;;;;;;;4997355;28;20194;-69
2021/12/18 06:10:33;;;;;;;6.13;3.63;;;;;;;;;;4994972;28;20209;-69
2021/12/18 06:13:00;;;;;;;7.23;3.00;;;;;;;;;;4995268;28;20202;-70
2021/12/18 06:15:25;;;;;;;6.47;3.40;;;;;;;;;;4997567;28;20196;-68
2021/12/18 06:17:53;;;;;;;6.20;3.10;;;;;;;;;;4999047;28;20570;-69
2021/12/18 06:20:18;;;;;;;9.10;3.87;;;;;;;;;;5015253;28;20830;-70
2021/12/18 06:22:43;;;;;;;14.60;4.60;;;;;;;;;;5016847;28;20201;-69
2021/12/18 06:25:08;;;;;;;8.13;3.43;;;;;;;;;;5017279;28;20293;-68
2021/12/18 06:27:34;;;;;;;26.27;5.20;;;;;;;;;;5016123;28;20210;-69
2021/12/18 06:29:59;;;;;;;12.60;5.37;;;;;;;;;;5012991;28;20229;-70
2021/12/18 06:32:24;;;;;;;21.70;5.37;;;;;;;;;;5006344;28;20935;-70
2021/12/18 06:34:49;;;;;;;14.93;4.93;;;;;;;;;;5012161;28;20190;-70
2021/12/18 06:37:15;;;;;;;14.90;4.47;;;;;;;;;;4998806;28;20731;-69
2021/12/18 06:39:40;;;;;;;8.37;3.77;;;;;;;;;;5001410;28;20330;-71
2021/12/18 06:42:05;;;;;;;9.57;4.00;;;;;;;;;;5000729;28;20182;-69
2021/12/18 06:44:30;;;;;;;22.47;4.63;;;;;;;;;;5003792;28;20189;-69
2021/12/18 06:46:56;;;;;;;10.67;3.40;;;;;;;;;;5000415;28;20178;-70
2021/12/18 06:49:21;;;;;;;9.27;3.13;;;;;;;;;;5013612;23;20645;-71
2021/12/18 06:51:47;;;;;;;27.97;4.70;;;;;;;;;;4991210;28;20191;-71
2021/12/18 06:54:12;;;;;;;16.50;4.53;;;;;;;;;;4990436;28;20194;-72
2021/12/18 06:56:37;;;;;;;13.63;3.90;;;;;;;;;;4989111;28;20231;-72
2021/12/18 06:59:02;;;;;;;11.03;3.10;;;;;;;;;;4990634;28;20227;-71
2021/12/18 07:01:27;;;;;;;8.07;3.20;;;;;;;;;;4990185;28;20663;-72
2021/12/18 07:03:52;;;;;;;8.43;3.30;;;;;;;;;;4992860;28;20188;-72
2021/12/18 07:06:18;;;;;;;11.53;2.93;;;;;;;;;;4991585;28;20179;-71
2021/12/18 07:08:43;;;;;;;15.30;3.27;;;;;;;;;;4994278;28;20186;-72
2021/12/18 07:11:08;;;;;;;6.20;3.23;;;;;;;;;;4990826;28;20187;-70
2021/12/18 07:13:33;;;;;;;16.03;3.60;;;;;;;;;;4993458;28;20187;-72
2021/12/18 07:15:59;;;;;;;13.47;3.53;;;;;;;;;;4990992;28;20861;-72
2021/12/18 07:18:24;;;;;;;8.10;3.00;;;;;;;;;;4990147;28;20392;-71
2021/12/18 07:20:51;;;;;;;12.60;3.57;;;;;;;;;;4990241;28;20803;-71
2021/12/18 07:23:16;;;;;;;7.27;3.90;;;;;;;;;;4989100;28;20204;-72
2021/12/18 07:25:42;;;;;;;10.07;3.27;;;;;;;;;;4990261;28;20684;-70
2021/12/18 07:28:07;;;;;;;8.27;2.87;;;;;;;;;;4989490;28;20342;-71
2021/12/18 07:30:32;;;;;;;6.00;2.83;;;;;;;;;;4990325;28;20885;-71
2021/12/18 07:32:57;;;;;;;7.70;3.67;;;;;;;;;;4989633;28;20182;-71
2021/12/18 07:35:22;;;;;;;8.97;3.63;;;;;;;;;;4988996;28;20734;-73
2021/12/18 07:37:47;;;;;;;5.83;3.53;;;;;;;;;;4988871;28;20229;-73
2021/12/18 07:40:13;;;;;;;5.07;2.97;;;;;;;;;;4990692;28;20194;-70
2021/12/18 07:42:38;;;;;;;10.33;3.43;;;;;;;;;;4990833;28;20202;-74
2021/12/18 07:45:04;;;;;;;8.00;2.90;;;;;;;;;;4990337;28;20179;-75
2021/12/18 07:47:30;;;;;;;7.63;3.47;;;;;;;;;;4987913;28;20632;-73
2021/12/18 07:49:55;;;;;;;14.80;4.03;;;;;;;;;;4991898;28;20253;-73
2021/12/18 07:52:21;;;;;;;13.87;3.53;;;;;;;;;;4991838;28;20199;-74
2021/12/18 07:54:46;;;;;;;9.00;3.20;;;;;;;;;;5003817;28;20266;-73
2021/12/18 07:57:12;;;;;;;8.37;2.83;;;;;;;;;;4994527;28;20333;-73
2021/12/18 07:59:37;;;;;;;9.27;3.40;;;;;;;;;;4990124;28;20214;-74
2021/12/18 08:02:04;;;;;;;10.10;3.53;;;;;;;;;;4989589;28;20179;-73
2021/12/18 08:04:30;;;;;;;7.60;3.30;;;;;;;;;;4993749;28;20183;-74
2021/12/18 08:06:55;;;;;;;7.47;3.30;;;;;;;;;;4988302;28;20186;-73
2021/12/18 08:09:20;;;;;;;5.83;3.10;;;;;;;;;;4994916;28;20237;-73
2021/12/18 08:11:45;;;;;;;9.20;3.20;;;;;;;;;;4987870;28;20218;-72
2021/12/18 08:14:10;;;;;;;5.17;3.20;;;;;;;;;;4988415;28;20269;-71
2021/12/18 08:16:35;;;;;;;11.67;3.93;;;;;;;;;;4991003;28;20667;-72
2021/12/18 08:19:01;;;;;;;9.00;3.30;;;;;;;;;;4990820;28;20207;-71
2021/12/18 08:21:26;;;;;;;13.43;3.67;;;;;;;;;;4991238;28;20403;-72
2021/12/18 08:23:51;;;;;;;6.50;3.50;;;;;;;;;;4987715;28;20372;-72
2021/12/18 08:26:16;;;;;;;4.70;2.47;;;;;;;;;;4992665;28;20183;-73
2021/12/18 08:28:41;;;;;;;3.57;2.23;;;;;;;;;;4987893;28;20288;-72
2021/12/18 08:31:07;;;;;;;3.97;2.30;;;;;;;;;;4989784;28;20290;-71
2021/12/18 08:33:32;;;;;;;3.37;2.13;;;;;;;;;;4988850;28;20187;-71
2021/12/18 08:35:57;;;;;;;6.73;2.03;;;;;;;;;;4989520;28;22480;-72
2021/12/18 08:38:22;;;;;;;5.97;2.20;;;;;;;;;;4989731;28;20418;-72
2021/12/18 08:40:49;;;;;;;4.13;2.67;;;;;;;;;;4993616;28;20574;-73
2021/12/18 08:43:15;;;;;;;6.87;2.50;;;;;;;;;;4987447;28;20175;-71
2021/12/18 08:45:40;;;;;;;3.97;2.10;;;;;;;;;;4988112;28;21507;-72
2021/12/18 08:48:05;;;;;;;4.47;2.47;;;;;;;;;;4988019;28;20225;-71
2021/12/18 08:50:31;;;;;;;4.20;2.23;;;;;;;;;;4986660;28;20694;-72
2021/12/18 08:52:56;;;;;;;11.40;3.87;;;;;;;;;;4986974;28;20194;-71
2021/12/18 08:55:22;;;;;;;6.57;3.20;;;;;;;;;;4989043;28;20764;-73
2021/12/18 08:57:47;;;;;;;9.90;3.00;;;;;;;;;;4988523;28;20260;-71
2021/12/18 09:00:16;;;;;;;8.10;2.90;;;;;;;;;;4989917;28;20332;-72
2021/12/18 09:02:42;;;;;;;7.53;2.83;;;;;;;;;;4988026;28;20175;-73
2021/12/18 09:05:08;;;;;;;7.50;3.03;;;;;;;;;;4993288;28;20563;-72
2021/12/18 09:07:33;;;;;;;5.10;2.57;;;;;;;;;;4988057;28;20831;-72
2021/12/18 09:09:58;;;;;;;7.53;3.00;;;;;;;;;;4987836;28;20753;-72
2021/12/18 09:12:25;;;;;;;4.87;2.07;;;;;;;;;;4988116;28;20425;-72
2021/12/18 09:14:50;;;;;;;4.70;2.80;;;;;;;;;;4988517;28;20179;-72
2021/12/18 09:17:15;;;;;;;3.43;2.23;;;;;;;;;;4987377;28;20242;-72
2021/12/18 09:19:40;;;;;;;5.90;2.50;;;;;;;;;;4991359;28;20214;-72
2021/12/18 09:22:06;;;;;;;5.83;2.37;;;;;;;;;;4990092;28;20171;-71
2021/12/18 09:24:32;;;;;;;5.80;2.30;;;;;;;;;;4989002;28;20251;-71
2021/12/18 09:26:57;;;;;;;5.33;2.47;;;;;;;;;;4989739;28;20183;-72
2021/12/18 09:29:22;;;;;;;4.33;2.17;;;;;;;;;;4986517;28;20672;-72
2021/12/18 09:31:48;;;;;;;3.63;2.30;;;;;;;;;;4993372;28;20182;-71
2021/12/18 09:34:13;;;;;;;7.90;2.67;;;;;;;;;;4986394;28;20175;-71
2021/12/18 09:36:38;;;;;;;4.10;2.10;;;;;;;;;;4989552;28;20189;-71
2021/12/18 09:39:04;;;;;;;6.80;3.00;;;;;;;;;;5001348;28;20206;-71
2021/12/18 09:41:30;;;;;;;3.00;2.23;;;;;;;;;;4997044;28;20185;-71
2021/12/18 09:43:55;;;;;;;3.37;2.20;;;;;;;;;;5007742;28;20726;-71
2021/12/18 09:46:20;;;;;;;2.63;2.03;;;;;;;;;;5006773;28;20167;-70
2021/12/18 09:48:46;;;;;;;2.93;2.30;;;;;;;;;;4991161;28;20194;-71
2021/12/18 09:51:21;;;;;;;2.40;1.80;;;;;;;;;;4990312;28;20205;-72
2021/12/18 09:53:47;;;;;;;2.43;1.83;;;;;;;;;;4988860;28;20218;-71
2021/12/18 09:56:12;;;;;;;2.57;1.63;;;;;;;;;;4991571;28;20190;-71
2021/12/18 09:58:37;;;;;;;2.13;1.70;;;;;;;;;;4988361;28;20645;-70
2021/12/18 10:01:02;;;;;;;2.27;1.50;;;;;;;;;;4987451;28;20204;-71
2021/12/18 10:03:46;;;;;;;3.00;1.50;;;;;;;;;;4987133;28;20222;-71
2021/12/18 10:06:28;;;;;;;7.87;2.20;;;;;;;;;;4988668;28;20257;-72
2021/12/18 10:08:53;;;;;;;4.93;1.67;;;;;;;;;;4987995;28;20190;-74
2021/12/18 10:11:18;;;;;;;3.80;2.30;;;;;;;;;;4989364;28;20190;-71
2021/12/18 10:13:52;;;;;;;6.63;2.27;;;;;;;;;;4991711;28;20178;-72
2021/12/18 10:16:17;;;;;;;4.03;2.00;;;;;;;;;;4991949;28;20187;-72
2021/12/18 10:18:42;;;;;;;2.60;1.87;;;;;;;;;;4993877;28;20222;-72
2021/12/18 10:21:09;;;;;;;6.03;2.17;;;;;;;;;;4993676;28;20178;-74
2021/12/18 10:23:35;;;;;;;6.77;2.30;;;;;;;;;;4993766;28;20848;-72
2021/12/18 10:26:00;;;;;;;2.83;2.17;;;;;;;;;;4992086;28;20187;-72
2021/12/18 10:28:41;;;;;;;3.47;2.30;;;;;;;;;;4992276;28;20453;-72
2021/12/18 10:31:06;;;;;;;5.23;2.93;;;;;;;;;;4985529;28;20206;-71
2021/12/18 10:33:35;;;;;;;3.27;2.23;;;;;;;;;;4992264;28;20186;-71
2021/12/18 10:36:01;;;;;;;3.20;2.40;;;;;;;;;;4992306;28;20175;-71
2021/12/18 10:38:48;;;;;;;3.13;2.30;;;;;;;;;;4991435;28;20735;-72
2021/12/18 10:41:30;;;;;;;3.30;2.30;;;;;;;;;;4991355;28;20175;-71
2021/12/18 10:44:07;;;;;;;3.97;2.70;;;;;;;;;;4991416;28;20187;-72
2021/12/18 10:46:32;;;;;;;2.97;2.00;;;;;;;;;;4991481;28;20182;-72
2021/12/18 10:49:02;;;;;;;5.03;2.47;;;;;;;;;;4991162;28;20293;-73
2021/12/18 10:51:30;;;;;;;5.00;2.63;;;;;;;;;;5004831;28;20187;-73
2021/12/18 10:54:05;;;;;;;2.30;1.83;;;;;;;;;;4999009;28;20190;-72
2021/12/18 10:56:32;;;;;;;2.40;1.50;;;;;;;;;;4992595;28;20187;-73
2021/12/18 10:58:57;;;;;;;1.60;1.50;;;;;;;;;;4992160;28;20596;-71
2021/12/18 11:01:22;;;;;;;2.70;1.80;;;;;;;;;;4992307;28;20179;-72
2021/12/18 11:03:49;;;;;;;2.80;1.60;;;;;;;;;;4991850;28;20194;-71
2021/12/18 11:06:14;;;;;;;2.43;1.60;;;;;;;;;;4990943;28;20534;-72
2021/12/18 11:09:00;;;;;;;2.10;1.77;;;;;;;;;;4995087;28;20186;-71
2021/12/18 11:14:02;;;;;;;1.73;1.27;;;;;;;;;;4991505;28;20221;-71
2021/12/18 11:16:28;;;;;;;1.43;1.30;;;;;;;;;;4991390;28;20278;-72
2021/12/18 11:18:56;;;;;;;1.57;1.30;;;;;;;;;;4992450;28;20329;-73
2021/12/18 11:21:25;;;;;;;1.57;1.07;;;;;;;;;;4991152;28;20191;-71
2021/12/18 11:23:52;;;;;;;1.37;1.17;;;;;;;;;;4990685;28;20225;-71
2021/12/18 11:26:21;;;;;;;1.30;1.10;;;;;;;;;;4990609;28;20186;-71
2021/12/18 11:28:48;;;;;;;1.20;0.80;;;;;;;;;;4989978;28;20278;-72
2021/12/18 11:31:13;;;;;;;1.40;1.30;;;;;;;;;;4998351;28;20183;-71
2021/12/18 11:33:39;;;;;;;2.00;0.97;;;;;;;;;;4991482;28;20194;-72
2021/12/18 11:36:05;;;;;;;1.40;1.10;;;;;;;;;;5001117;28;20187;-72
2021/12/18 11:38:31;;;;;;;1.00;0.90;;;;;;;;;;5004398;28;20223;-71
2021/12/18 11:40:57;;;;;;;1.80;1.30;;;;;;;;;;4991463;28;20206;-71
2021/12/18 11:43:39;;;;;;;2.10;1.60;;;;;;;;;;4990346;28;20209;-72
2021/12/18 11:46:23;;;;;;;1.60;1.37;;;;;;;;;;4991241;28;20191;-72
2021/12/18 11:48:52;;;;;;;2.27;2.03;;;;;;;;;;4996277;28;20186;-71
2021/12/18 11:51:17;;;;;;;2.20;1.50;;;;;;;;;;4990987;28;20203;-72
2021/12/18 11:53:43;;;;;;;1.80;1.57;;;;;;;;;;4990447;28;20653;-71
2021/12/18 11:56:08;;;;;;;1.93;1.73;;;;;;;;;;4991284;28;20197;-72
2021/12/18 11:58:40;;;;;;;2.30;2.07;;;;;;;;;;4990402;28;20226;-71
2021/12/18 12:01:19;;;;;;;2.10;1.80;;;;;;;;;;4994396;28;20203;-72
2021/12/18 12:03:51;;;;;;;2.63;2.30;;;;;;;;;;4990801;28;20181;-72
2021/12/18 12:06:19;;;;;;;2.90;2.60;;;;;;;;;;4990999;28;20253;-72
2021/12/18 12:08:45;;;;;;;2.33;2.13;;;;;;;;;;4988477;28;20183;-71
2021/12/18 12:11:16;;;;;;;3.40;2.83;;;;;;;;;;5005445;28;20253;-72
2021/12/18 12:13:52;;;;;;;3.47;2.60;;;;;;;;;;4989154;28;20225;-72
2021/12/18 12:16:17;;;;;;;3.03;2.40;;;;;;;;;;4993920;28;20174;-72
2021/12/18 12:19:01;;;;;;;2.43;2.03;;;;;;;;;;4990809;28;20644;-73
2021/12/18 12:21:38;;;;;;;2.30;1.73;;;;;;;;;;4990019;28;20314;-73
2021/12/18 12:24:03;;;;;;;3.93;2.73;;;;;;;;;;4988062;28;20217;-71
2021/12/18 12:26:29;;;;;;;1.90;1.60;;;;;;;;;;4990611;28;20278;-73
2021/12/18 12:28:54;;;;;;;1.97;1.77;;;;;;;;;;4989044;28;20640;-72
2021/12/18 12:31:19;;;;;;;3.10;1.30;;;;;;;;;;4993071;28;20195;-71
2021/12/18 12:33:49;;;;;;;1.97;1.70;;;;;;;;;;4991426;28;20183;-72
2021/12/18 12:36:15;;;;;;;1.50;1.40;;;;;;;;;;4988660;28;20183;-73
2021/12/18 12:38:42;;;;;;;1.70;1.47;;;;;;;;;;4988672;28;20530;-72
2021/12/18 12:41:27;;;;;;;1.97;1.60;;;;;;;;;;4989159;28;20198;-73
2021/12/18 12:43:53;;;;;;;2.03;1.60;;;;;;;;;;4989954;28;20203;-72
2021/12/18 12:46:19;;;;;;;2.10;1.80;;;;;;;;;;4989228;28;20767;-72
2021/12/18 12:49:03;;;;;;;2.17;1.97;;;;;;;;;;4991679;28;20193;-71
2021/12/18 12:51:48;;;;;;;2.13;1.70;;;;;;;;;;5007947;22;20235;-75
2021/12/18 12:54:33;;;;;;;1.67;1.50;;;;;;;;;;4996343;28;20178;-75
2021/12/18 12:57:17;;;;;;;2.50;2.00;;;;;;;;;;4995965;28;20190;-77
2021/12/18 12:59:42;;;;;;;2.50;2.13;;;;;;;;;;4997678;28;20256;-76
2021/12/18 13:02:08;;;;;;;3.10;1.70;;;;;;;;;;4995418;28;20282;-76
2021/12/18 13:04:33;;;;;;;2.40;2.20;;;;;;;;;;4995706;28;20183;-75
2021/12/18 13:07:08;;;;;;;3.07;2.53;;;;;;;;;;4997082;28;20187;-75
2021/12/18 13:09:33;;;;;;;3.33;3.03;;;;;;;;;;4994689;28;20198;-76
2021/12/18 13:12:02;;;;;;;3.73;2.57;;;;;;;;;;4993723;28;22098;-76
2021/12/18 13:14:35;;;;;;;3.47;2.90;;;;;;;;;;4994457;28;20514;-77
2021/12/18 13:17:00;;;;;;;5.87;3.00;;;;;;;;;;4993978;28;20175;-76
2021/12/18 13:19:25;;;;;;;4.63;3.70;;;;;;;;;;4999205;28;20238;-76
2021/12/18 13:21:50;;;;;;;5.03;3.40;;;;;;;;;;4992164;28;20214;-76
2021/12/18 13:24:15;;;;;;;2.57;2.37;;;;;;;;;;4993961;28;20191;-75
2021/12/18 13:26:42;;;;;;;3.37;2.33;;;;;;;;;;4994647;28;20190;-76
2021/12/18 13:29:15;;;;;;;2.80;2.20;;;;;;;;;;4995402;28;20656;-77
2021/12/18 13:31:50;;;;;;;2.80;2.50;;;;;;;;;;4996278;28;20332;-77
2021/12/18 13:34:18;;;;;;;2.40;1.90;;;;;;;;;;4995040;28;20182;-76
2021/12/18 13:36:46;;;;;;;3.00;2.47;;;;;;;;;;4996040;28;20182;-77
2021/12/18 13:39:13;;;;;;;2.47;2.10;;;;;;;;;;4991984;28;20805;-77
2021/12/18 13:41:39;;;;;;;2.77;2.07;;;;;;;;;;4992921;28;20194;-78
2021/12/18 13:44:04;;;;;;;2.00;1.70;;;;;;;;;;4979284;28;20599;-77
2021/12/18 13:46:30;;;;;;;1.97;1.60;;;;;;;;;;4988458;28;20241;-77
2021/12/18 13:48:56;;;;;;;2.10;1.90;;;;;;;;;;4998228;28;20236;-78
2021/12/18 13:51:22;;;;;;;2.13;1.93;;;;;;;;;;4994792;28;20211;-77
2021/12/18 13:53:58;;;;;;;2.10;1.77;;;;;;;;;;4995006;28;21063;-77
2021/12/18 13:56:24;;;;;;;2.20;1.90;;;;;;;;;;4994505;28;20312;-75
2021/12/18 13:58:50;;;;;;;2.13;1.93;;;;;;;;;;4995096;28;20279;-75
2021/12/18 14:01:17;;;;;;;3.10;2.00;;;;;;;;;;4994355;28;21084;-75
2021/12/18 14:03:52;;;;;;;4.87;2.23;;;;;;;;;;4995710;28;20183;-75
2021/12/18 14:06:19;;;;;;;2.70;2.23;;;;;;;;;;4997155;28;20226;-75
2021/12/18 14:08:58;;;;;;;2.50;2.20;;;;;;;;;;4994684;28;20271;-75
2021/12/18 14:11:29;;;;;;;3.03;2.63;;;;;;;;;;4995628;28;20202;-75
2021/12/18 14:14:04;;;;;;;2.53;2.27;;;;;;;;;;4995007;28;20399;-75
2021/12/18 14:16:29;;;;;;;2.60;2.07;;;;;;;;;;4995760;28;20186;-75
2021/12/18 14:18:56;;;;;;;3.27;2.20;;;;;;;;;;4997683;28;20209;-75
2021/12/18 14:21:32;;;;;;;2.37;1.90;;;;;;;;;;4995678;28;20346;-76
2021/12/18 14:23:58;;;;;;;2.10;1.50;;;;;;;;;;4995258;28;20335;-76
2021/12/18 14:26:25;;;;;;;1.73;1.50;;;;;;;;;;4996198;28;20182;-76
2021/12/18 14:28:52;;;;;;;3.53;1.90;;;;;;;;;;4995043;28;20191;-76
2021/12/18 14:31:26;;;;;;;2.20;1.90;;;;;;;;;;4992554;28;20211;-76
2021/12/18 14:33:59;;;;;;;1.93;1.73;;;;;;;;;;4994158;28;20205;-76
2021/12/18 14:36:42;;;;;;;2.77;2.10;;;;;;;;;;4996721;28;20190;-77
2021/12/18 14:39:08;;;;;;;2.13;1.93;;;;;;;;;;4994729;28;20215;-77
2021/12/18 14:41:35;;;;;;;3.90;2.43;;;;;;;;;;4996893;28;20641;-76
2021/12/18 14:44:05;;;;;;;3.33;2.70;;;;;;;;;;4995451;28;20660;-77
2021/12/18 14:46:32;;;;;;;4.83;3.40;;;;;;;;;;5008575;28;20672;-77
2021/12/18 14:49:07;;;;;;;4.07;3.33;;;;;;;;;;4997800;28;20191;-76
2021/12/18 14:51:32;;;;;;;4.53;3.00;;;;;;;;;;4995258;28;20223;-77
2021/12/18 14:53:58;;;;;;;3.80;2.23;;;;;;;;;;4993648;28;20199;-75
2021/12/18 14:56:23;;;;;;;2.93;2.33;;;;;;;;;;5008970;28;20240;-77
2021/12/18 14:58:50;;;;;;;3.27;2.60;;;;;;;;;;4996398;28;20237;-77
2021/12/18 15:01:17;;;;;;;2.90;2.60;;;;;;;;;;4995039;28;20209;-77
2021/12/18 15:03:43;;;;;;;3.70;2.70;;;;;;;;;;4996732;28;20531;-76
2021/12/18 15:06:28;;;;;;;3.43;2.77;;;;;;;;;;5000235;28;20190;-74
2021/12/18 15:09:06;;;;;;;4.73;3.33;;;;;;;;;;5000843;28;20722;-77
2021/12/18 15:11:37;;;;;;;3.53;3.07;;;;;;;;;;4999190;28;20206;-75
2021/12/18 15:14:08;;;;;;;4.97;3.83;;;;;;;;;;4997927;28;20536;-78
2021/12/18 15:16:40;;;;;;;7.10;3.87;;;;;;;;;;4998198;28;20274;-76
2021/12/18 15:19:10;;;;;;;5.20;3.47;;;;;;;;;;4991799;28;20203;-76
2021/12/18 15:21:36;;;;;;;4.40;3.20;;;;;;;;;;4998284;28;20202;-75
2021/12/18 15:24:02;;;;;;;3.27;2.37;;;;;;;;;;4998691;28;20213;-76
2021/12/18 15:26:29;;;;;;;2.37;2.17;;;;;;;;;;4998799;28;20261;-74
2021/12/18 15:28:54;;;;;;;3.57;2.47;;;;;;;;;;4999271;28;20183;-74
2021/12/18 15:31:20;;;;;;;2.50;2.10;;;;;;;;;;4999913;28;20821;-74